createdAt,value
2018-11-13T00:01:08.601Z,19.83
2018-11-13T00:03:36.459Z,21.83
2018-11-13T00:06:04.268Z,18.23
2018-11-13T00:08:32.161Z,19.53
2018-11-13T00:10:59.972Z,22.13
2018-11-13T00:13:27.788Z,17.87
2018-11-13T00:15:55.682Z,20.40
2018-11-13T00:18:23.488Z,17.73
2018-11-13T00:20:51.328Z,20.70
2018-11-13T00:23:19.156Z,18.87
2018-11-13T00:25:46.981Z,18.97
2018-11-13T00:28:14.792Z,19.30
2018-11-13T00:30:42.867Z,19.23
2018-11-13T00:33:10.460Z,21.00
2018-11-13T00:35:38.305Z,18.13
2018-11-13T00:38:06.153Z,20.73
2018-11-13T00:40:34.000Z,22.20
2018-11-13T00:43:01.812Z,19.43
2018-11-13T00:45:29.727Z,21.20
2018-11-13T00:47:57.494Z,22.40
2018-11-13T00:50:25.324Z,24.60
2018-11-13T00:52:53.145Z,21.87
2018-11-13T00:55:20.984Z,21.90
2018-11-13T00:57:48.852Z,19.80
2018-11-13T01:00:17.894Z,20.23
2018-11-13T01:02:45.892Z,21.07
2018-11-13T01:05:15.902Z,23.47
2018-11-13T01:07:44.740Z,21.80
2018-11-13T01:10:13.068Z,20.10
2018-11-13T01:12:41.400Z,18.63
2018-11-13T01:15:10.271Z,21.60
2018-11-13T01:17:37.801Z,23.00
2018-11-13T01:20:05.699Z,21.90
2018-11-13T01:22:34.089Z,19.70
2018-11-13T01:25:01.445Z,23.13
2018-11-13T01:27:29.254Z,23.90
2018-11-13T01:29:57.976Z,24.00
2018-11-13T01:32:27.485Z,21.33
2018-11-13T01:34:55.416Z,22.83
2018-11-13T01:37:23.632Z,24.27
2018-11-13T01:39:51.560Z,26.67
2018-11-13T01:42:19.391Z,24.90
2018-11-13T01:44:47.236Z,24.37
2018-11-13T01:47:15.085Z,20.27
2018-11-13T01:49:42.910Z,20.67
2018-11-13T01:52:10.740Z,20.83
2018-11-13T01:54:38.593Z,21.43
2018-11-13T01:57:06.480Z,21.13
2018-11-13T01:59:34.373Z,21.33
2018-11-13T02:02:02.244Z,22.07
2018-11-13T02:04:30.184Z,24.60
2018-11-13T02:06:58.003Z,24.23
2018-11-13T02:09:25.852Z,24.80
2018-11-13T02:11:53.672Z,23.40
2018-11-13T02:14:21.512Z,22.03
2018-11-13T02:16:49.354Z,26.70
2018-11-13T02:19:17.161Z,22.53
2018-11-13T02:21:44.996Z,23.00
2018-11-13T02:24:12.820Z,20.03
2018-11-13T02:26:40.635Z,20.93
2018-11-13T02:29:08.463Z,20.37
2018-11-13T02:31:36.284Z,20.10
2018-11-13T02:34:04.141Z,19.90
2018-11-13T02:36:31.978Z,21.03
2018-11-13T02:38:59.769Z,23.23
2018-11-13T02:41:27.608Z,17.97
2018-11-13T02:43:55.433Z,21.67
2018-11-13T02:46:23.323Z,20.80
2018-11-13T02:48:51.141Z,18.40
2018-11-13T02:51:18.968Z,21.90
2018-11-13T02:53:46.788Z,22.60
2018-11-13T02:56:14.616Z,18.93
2018-11-13T02:58:42.448Z,22.23
2018-11-13T03:01:10.265Z,23.43
2018-11-13T03:03:38.115Z,23.53
2018-11-13T03:06:05.920Z,22.03
2018-11-13T03:08:33.769Z,17.90
2018-11-13T03:11:01.585Z,20.03
2018-11-13T03:13:29.443Z,19.50
2018-11-13T03:15:57.281Z,22.47
2018-11-13T03:18:25.096Z,20.30
2018-11-13T03:20:52.920Z,19.83
2018-11-13T03:23:20.908Z,23.93
2018-11-13T03:25:48.727Z,23.60
2018-11-13T03:28:16.539Z,22.00
2018-11-13T03:30:44.385Z,20.83
2018-11-13T03:33:12.201Z,19.80
2018-11-13T03:35:40.012Z,22.00
2018-11-13T03:38:07.838Z,21.60
2018-11-13T03:40:35.688Z,24.30
2018-11-13T03:43:03.480Z,20.77
2018-11-13T03:45:31.279Z,23.50
2018-11-13T03:47:59.128Z,24.50
2018-11-13T03:50:26.946Z,25.13
2018-11-13T03:52:54.820Z,21.40
2018-11-13T03:55:22.616Z,22.07
2018-11-13T03:57:50.795Z,22.63
2018-11-13T04:00:19.871Z,22.70
2018-11-13T04:02:47.713Z,28.90
2018-11-13T04:05:16.638Z,23.77
2018-11-13T04:07:46.676Z,33.93
2018-11-13T04:10:15.640Z,27.73
2018-11-13T04:12:43.728Z,23.30
2018-11-13T04:15:13.016Z,25.60
2018-11-13T04:17:41.100Z,23.80
2018-11-13T04:20:09.685Z,25.03
2018-11-13T04:22:37.535Z,21.30
2018-11-13T04:25:05.369Z,25.00
2018-11-13T04:27:33.193Z,23.93
2018-11-13T04:30:00.995Z,26.10
2018-11-13T04:32:28.819Z,22.30
2018-11-13T04:34:56.645Z,20.03
2018-11-13T04:37:24.655Z,22.97
2018-11-13T04:39:52.447Z,24.70
2018-11-13T04:42:20.294Z,22.70
2018-11-13T04:44:48.100Z,26.73
2018-11-13T04:47:15.925Z,34.37
2018-11-13T04:49:43.982Z,53.17
2018-11-13T04:52:11.788Z,27.17
2018-11-13T04:54:39.628Z,21.10
2018-11-13T04:57:07.556Z,30.10
2018-11-13T04:59:35.404Z,33.03
2018-11-13T05:02:03.216Z,29.73
2018-11-13T05:04:31.044Z,22.00
2018-11-13T05:06:58.936Z,23.10
2018-11-13T05:09:26.771Z,23.30
2018-11-13T05:11:54.624Z,25.37
2018-11-13T05:14:22.432Z,23.57
2018-11-13T05:16:50.301Z,25.03
2018-11-13T05:19:18.108Z,26.63
2018-11-13T05:21:45.949Z,29.03
2018-11-13T05:24:13.865Z,28.63
2018-11-13T05:26:41.807Z,27.93
2018-11-13T05:29:09.641Z,26.97
2018-11-13T05:31:37.463Z,25.27
2018-11-13T05:34:05.400Z,28.10
2018-11-13T05:36:33.226Z,29.60
2018-11-13T05:39:01.060Z,24.00
2018-11-13T05:41:28.916Z,27.10
2018-11-13T05:43:56.702Z,27.70
2018-11-13T05:46:24.528Z,25.37
2018-11-13T05:48:52.352Z,24.23
2018-11-13T05:51:20.171Z,26.30
2018-11-13T05:53:48.028Z,27.63
2018-11-13T05:56:15.844Z,24.53
2018-11-13T05:58:43.687Z,26.50
2018-11-13T06:01:11.517Z,26.50
2018-11-13T06:03:39.388Z,25.80
2018-11-13T06:06:08.057Z,25.03
2018-11-13T06:08:36.009Z,29.93
2018-11-13T06:11:03.763Z,29.40
2018-11-13T06:13:31.573Z,29.30
2018-11-13T06:15:59.400Z,32.60
2018-11-13T06:18:27.300Z,31.95
2018-11-13T06:20:55.036Z,27.85
2018-11-13T06:23:22.876Z,27.65
2018-11-13T06:25:50.687Z,26.15
2018-11-13T06:28:18.560Z,31.63
2018-11-13T06:30:46.476Z,31.20
2018-11-13T06:33:14.276Z,29.43
2018-11-13T06:35:42.086Z,27.73
2018-11-13T06:38:09.910Z,28.40
2018-11-13T06:40:37.725Z,28.90
2018-11-13T06:43:05.661Z,28.87
2018-11-13T06:45:33.492Z,28.97
2018-11-13T06:48:01.313Z,32.67
2018-11-13T06:50:29.140Z,34.47
2018-11-13T06:52:56.957Z,34.67
2018-11-13T06:55:31.847Z,40.07
2018-11-13T06:57:59.659Z,42.13
2018-11-13T07:00:27.508Z,38.40
2018-11-13T07:02:55.523Z,44.57
2018-11-13T07:05:23.340Z,41.67
2018-11-13T07:07:51.223Z,37.57
2018-11-13T07:10:20.351Z,38.60
2018-11-13T07:12:49.176Z,42.45
2018-11-13T07:15:20.308Z,39.50
2018-11-13T07:17:49.452Z,38.30
2018-11-13T07:20:18.379Z,38.60
2018-11-13T07:22:46.213Z,39.20
2018-11-13T07:25:14.399Z,44.30
2018-11-13T07:27:42.677Z,45.10
2018-11-13T07:30:11.304Z,40.40
2018-11-13T07:32:39.760Z,40.55
2018-11-13T07:35:08.334Z,36.37
2018-11-13T07:37:36.284Z,46.00
2018-11-13T07:40:04.317Z,36.35
2018-11-13T07:42:32.117Z,36.20
2018-11-13T07:44:59.952Z,51.45
2018-11-13T07:47:27.954Z,38.03
2018-11-13T07:49:55.673Z,44.60
2018-11-13T07:52:23.507Z,40.90
2018-11-13T07:54:51.352Z,40.53
2018-11-13T07:57:19.203Z,58.03
2018-11-13T07:59:47.040Z,41.03
2018-11-13T08:02:14.904Z,49.80
2018-11-13T08:04:42.737Z,43.90
2018-11-13T08:07:10.589Z,44.80
2018-11-13T08:09:38.400Z,41.20
2018-11-13T08:12:06.236Z,41.90
2018-11-13T08:14:34.068Z,42.70
2018-11-13T08:17:01.873Z,37.90
2018-11-13T08:19:29.704Z,48.70
2018-11-13T08:21:57.562Z,40.90
2018-11-13T08:24:25.416Z,47.17
2018-11-13T08:26:53.309Z,51.17
2018-11-13T08:29:21.151Z,37.77
2018-11-13T08:34:15.940Z,41.20
2018-11-13T08:36:43.781Z,43.03
2018-11-13T08:39:12.668Z,45.50
2018-11-13T08:41:40.495Z,45.20
2018-11-13T08:44:08.924Z,47.25
2018-11-13T08:46:36.794Z,52.50
2018-11-13T08:49:05.067Z,50.20
2018-11-13T08:51:32.912Z,46.40
2018-11-13T08:54:00.785Z,47.50
2018-11-13T08:56:28.619Z,44.50
2018-11-13T08:58:56.509Z,43.85
2018-11-13T09:01:24.360Z,45.17
2018-11-13T09:03:52.184Z,47.33
2018-11-13T09:06:20.000Z,49.83
2018-11-13T09:08:47.884Z,54.93
2018-11-13T09:11:15.749Z,49.50
2018-11-13T09:13:43.544Z,52.10
2018-11-13T09:16:11.361Z,51.15
2018-11-13T09:18:39.164Z,49.83
2018-11-13T09:21:07.036Z,48.57
2018-11-13T09:23:34.953Z,42.70
2018-11-13T09:26:02.787Z,43.90
2018-11-13T09:28:30.587Z,40.73
2018-11-13T09:30:58.587Z,41.60
2018-11-13T09:33:26.306Z,43.50
2018-11-13T09:35:54.186Z,41.00
2018-11-13T09:38:21.960Z,41.93
2018-11-13T09:40:49.804Z,42.90
2018-11-13T09:43:17.636Z,41.50
2018-11-13T09:45:45.506Z,37.70
2018-11-13T09:48:13.325Z,36.37
2018-11-13T09:50:41.143Z,41.80
2018-11-13T09:53:08.955Z,39.80
2018-11-13T09:55:36.772Z,34.37
2018-11-13T09:58:04.897Z,38.30
2018-11-13T10:00:32.875Z,32.63
2018-11-13T10:03:02.017Z,37.60
2018-11-13T10:05:29.068Z,31.00
2018-11-13T10:07:57.124Z,31.83
2018-11-13T10:10:25.680Z,30.80
2018-11-13T10:12:53.422Z,27.75
2018-11-13T10:15:24.636Z,28.97
2018-11-13T10:17:52.537Z,29.43
2018-11-13T10:20:20.315Z,27.97
2018-11-13T10:22:49.551Z,28.93
2018-11-13T10:25:17.364Z,28.27
2018-11-13T10:27:45.242Z,32.25
2018-11-13T10:30:14.280Z,27.67
2018-11-13T10:32:42.617Z,27.30
2018-11-13T10:35:11.449Z,28.97
2018-11-13T10:37:39.933Z,30.93
2018-11-13T10:40:08.954Z,29.07
2018-11-13T10:42:36.736Z,33.80
2018-11-13T10:45:05.157Z,27.73
2018-11-13T10:47:33.009Z,26.30
2018-11-13T10:50:00.881Z,28.80
2018-11-13T10:52:28.677Z,26.87
2018-11-13T10:54:56.540Z,29.53
2018-11-13T10:57:24.340Z,31.97
2018-11-13T10:59:52.164Z,29.77
2018-11-13T11:02:25.635Z,30.37
2018-11-13T11:04:53.439Z,28.50
2018-11-13T11:07:21.264Z,34.33
2018-11-13T11:09:49.075Z,32.57
2018-11-13T11:12:16.929Z,35.53
2018-11-13T11:14:44.724Z,34.73
2018-11-13T11:17:12.528Z,34.93
2018-11-13T11:19:41.340Z,37.97
2018-11-13T11:22:09.148Z,41.77
2018-11-13T11:24:36.980Z,36.43
2018-11-13T11:27:04.781Z,35.60
2018-11-13T11:29:32.641Z,32.17
2018-11-13T11:32:00.438Z,34.00
2018-11-13T11:34:28.320Z,32.40
2018-11-13T11:36:56.164Z,35.23
2018-11-13T11:39:23.992Z,37.63
2018-11-13T11:41:51.792Z,38.27
2018-11-13T11:44:19.632Z,34.23
2018-11-13T11:46:47.438Z,39.00
2018-11-13T11:49:15.316Z,38.63
2018-11-13T11:51:43.132Z,31.17
2018-11-13T11:54:10.964Z,35.50
2018-11-13T11:56:38.807Z,38.13
2018-11-13T11:59:06.619Z,33.80
2018-11-13T12:01:34.420Z,32.97
2018-11-13T12:04:02.248Z,39.20
2018-11-13T12:06:30.072Z,34.40
2018-11-13T12:08:57.872Z,38.77
2018-11-13T12:11:25.728Z,34.50
2018-11-13T12:13:53.566Z,38.03
2018-11-13T12:16:21.393Z,38.13
2018-11-13T12:18:49.244Z,33.80
2018-11-13T12:21:17.083Z,34.07
2018-11-13T12:23:44.885Z,31.07
2018-11-13T12:26:12.904Z,34.80
2018-11-13T12:28:40.712Z,31.50
2018-11-13T12:31:08.570Z,26.63
2018-11-13T12:33:36.360Z,23.10
2018-11-13T12:36:04.220Z,26.40
2018-11-13T12:38:32.076Z,26.80
2018-11-13T12:40:59.945Z,28.07
2018-11-13T12:43:27.744Z,24.10
2018-11-13T12:45:55.572Z,22.70
2018-11-13T12:48:23.399Z,24.43
2018-11-13T12:50:56.784Z,24.77
2018-11-13T12:53:24.584Z,26.53
2018-11-13T12:55:52.541Z,24.93
2018-11-13T12:58:20.236Z,24.80
2018-11-13T13:00:48.064Z,27.07
2018-11-13T13:03:15.888Z,25.40
2018-11-13T13:05:43.727Z,20.87
2018-11-13T13:08:11.564Z,24.60
2018-11-13T13:10:39.385Z,22.10
2018-11-13T13:13:07.220Z,24.27
2018-11-13T13:15:35.020Z,23.70
2018-11-13T13:18:02.844Z,23.00
2018-11-13T13:20:30.668Z,22.97
2018-11-13T13:22:58.552Z,26.10
2018-11-13T13:25:26.395Z,21.77
2018-11-13T13:27:54.264Z,20.33
2018-11-13T13:30:23.405Z,17.90
2018-11-13T13:32:51.473Z,16.70
2018-11-13T13:35:36.128Z,21.10
2018-11-13T13:38:04.301Z,19.93
2018-11-13T13:40:32.132Z,18.20
2018-11-13T13:42:59.972Z,19.03
2018-11-13T13:45:28.185Z,18.43
2018-11-13T13:47:56.496Z,19.30
2018-11-13T13:50:24.324Z,18.43
2018-11-13T13:52:52.236Z,18.37
2018-11-13T13:55:21.227Z,17.03
2018-11-13T13:57:48.696Z,18.37
2018-11-13T14:02:41.836Z,19.50
2018-11-13T14:05:09.916Z,18.93
2018-11-13T14:07:37.712Z,18.07
2018-11-13T14:10:05.699Z,19.30
2018-11-13T14:12:33.527Z,18.10
2018-11-13T14:15:01.552Z,19.53
2018-11-13T14:17:29.192Z,20.07
2018-11-13T14:19:57.008Z,16.97
2018-11-13T14:22:24.828Z,22.63
2018-11-13T14:24:52.688Z,21.93
2018-11-13T14:27:20.924Z,21.50
2018-11-13T14:29:48.748Z,25.27
2018-11-13T14:32:16.569Z,20.40
2018-11-13T14:34:44.393Z,20.40
2018-11-13T14:37:12.315Z,22.50
2018-11-13T14:39:40.157Z,28.90
2018-11-13T14:42:07.960Z,21.43
2018-11-13T14:44:35.808Z,22.37
2018-11-13T14:47:03.640Z,24.20
2018-11-13T14:49:31.473Z,28.87
2018-11-13T14:51:59.288Z,27.50
2018-11-13T14:54:27.125Z,29.03
2018-11-13T14:56:55.203Z,35.27
2018-11-13T14:59:23.027Z,26.73
2018-11-13T15:01:50.864Z,28.17
2018-11-13T15:04:18.672Z,30.90
2018-11-13T15:06:46.521Z,28.50
2018-11-13T15:09:14.324Z,28.00
2018-11-13T15:11:42.139Z,24.73
2018-11-13T15:14:09.958Z,27.90
2018-11-13T15:16:37.784Z,31.73
2018-11-13T15:19:05.601Z,29.07
2018-11-13T15:21:33.661Z,23.40
2018-11-13T15:24:01.242Z,23.47
2018-11-13T15:26:29.077Z,27.33
2018-11-13T15:28:56.940Z,23.27
2018-11-13T15:31:24.748Z,26.70
2018-11-13T15:33:52.585Z,30.80
2018-11-13T15:36:20.385Z,27.63
2018-11-13T15:38:48.220Z,25.63
2018-11-13T15:41:16.032Z,18.10
2018-11-13T15:43:43.864Z,19.00
2018-11-13T15:57:10.236Z,3.50
2018-11-13T15:59:38.082Z,4.00
2018-11-13T16:02:05.877Z,4.43
2018-11-13T16:04:33.702Z,4.20
2018-11-13T16:07:01.529Z,4.83
2018-11-13T16:09:29.340Z,5.37
2018-11-13T16:11:57.173Z,8.03
2018-11-13T16:14:25.029Z,7.83
2018-11-13T16:16:52.824Z,7.27
2018-11-13T16:19:20.672Z,9.37
2018-11-13T16:21:48.558Z,10.00
2018-11-13T16:24:16.352Z,7.00
2018-11-13T16:26:44.156Z,10.57
2018-11-13T16:29:14.012Z,9.97
2018-11-13T16:31:39.804Z,6.60
2018-11-13T16:34:07.629Z,7.60
2018-11-13T16:36:35.569Z,6.47
2018-11-13T16:39:03.519Z,12.63
2018-11-13T16:41:31.408Z,9.87
2018-11-13T16:43:59.211Z,11.33
2018-11-13T16:46:27.003Z,9.70
2018-11-13T16:48:54.847Z,6.47
2018-11-13T16:51:22.669Z,10.33
2018-11-13T16:53:58.170Z,8.13
2018-11-13T16:56:23.861Z,8.20
2018-11-13T16:58:51.700Z,9.73
2018-11-13T17:01:19.587Z,7.57
2018-11-13T17:03:47.431Z,10.10
2018-11-13T17:06:15.235Z,8.30
2018-11-13T17:08:42.995Z,7.80
2018-11-13T17:11:10.922Z,7.27
2018-11-13T17:13:38.660Z,7.93
2018-11-13T17:16:06.514Z,6.30
2018-11-13T17:18:34.313Z,5.80
2018-11-13T17:21:02.153Z,7.40
2018-11-13T17:23:30.050Z,7.37
2018-11-13T17:25:57.866Z,4.20
2018-11-13T17:28:25.616Z,3.73
2018-11-13T17:30:53.441Z,3.70
2018-11-13T17:33:21.257Z,2.93
2018-11-13T17:35:49.080Z,4.37
2018-11-13T17:38:16.881Z,2.37
2018-11-13T17:40:44.700Z,2.30
2018-11-13T17:43:12.524Z,2.90
2018-11-13T17:45:41.192Z,4.10
2018-11-13T17:48:09.648Z,4.20
2018-11-13T17:50:38.611Z,2.80
2018-11-13T17:53:06.690Z,2.17
2018-11-13T17:55:34.513Z,1.97
2018-11-13T17:58:06.616Z,2.00
2018-11-13T18:00:35.805Z,1.50
2018-11-13T18:03:04.352Z,1.90
2018-11-13T18:05:32.526Z,2.00
2018-11-13T18:08:01.212Z,5.60
2018-11-13T18:10:29.823Z,2.27
2018-11-13T18:12:57.656Z,2.20
2018-11-13T18:15:26.640Z,5.33
2018-11-13T18:17:54.483Z,3.00
2018-11-13T18:20:24.748Z,3.20
2018-11-13T18:22:52.577Z,2.20
2018-11-13T18:25:20.395Z,2.60
2018-11-13T18:27:50.536Z,2.80
2018-11-13T18:30:22.152Z,3.57
2018-11-13T18:32:50.352Z,3.10
2018-11-13T18:35:23.516Z,5.40
2018-11-13T18:37:52.083Z,2.80
2018-11-13T18:40:20.580Z,3.90
2018-11-13T18:42:49.188Z,4.20
2018-11-13T18:45:19.104Z,4.90
2018-11-13T18:47:46.976Z,5.77
2018-11-13T18:50:17.342Z,2.90
2018-11-13T18:52:45.176Z,3.10
2018-11-13T18:55:13.563Z,5.17
2018-11-13T18:57:41.899Z,4.50
2018-11-13T19:00:10.561Z,3.20
2018-11-13T19:02:38.420Z,5.20
2018-11-13T19:05:06.264Z,3.50
2018-11-13T19:07:34.088Z,3.70
2018-11-13T19:10:01.861Z,4.60
2018-11-13T19:12:29.780Z,4.70
2018-11-13T19:14:57.567Z,6.30
2018-11-13T19:17:25.477Z,6.53
2018-11-13T19:19:53.401Z,8.70
2018-11-13T19:22:21.096Z,6.60
2018-11-13T19:24:48.891Z,5.73
2018-11-13T19:27:16.724Z,7.17
2018-11-13T19:29:44.649Z,8.70
2018-11-13T19:32:12.436Z,7.90
2018-11-13T19:34:40.280Z,6.40
2018-11-13T19:37:08.095Z,8.67
2018-11-13T19:39:35.892Z,12.40
2018-11-13T19:42:03.733Z,8.60
2018-11-13T19:44:31.645Z,8.67
2018-11-13T19:46:59.458Z,8.83
2018-11-13T19:49:27.350Z,6.93
2018-11-13T19:51:55.128Z,8.10
2018-11-13T19:54:22.949Z,9.50
2018-11-13T19:56:50.764Z,9.97
2018-11-13T19:59:18.563Z,10.30
2018-11-13T20:01:46.435Z,10.13
2018-11-13T20:04:14.329Z,12.03
2018-11-13T20:06:42.066Z,11.60
2018-11-13T20:09:10.023Z,13.27
2018-11-13T20:11:37.831Z,10.90
2018-11-13T20:14:05.681Z,16.70
2018-11-13T20:16:33.500Z,11.47
2018-11-13T20:19:01.316Z,13.17
2018-11-13T20:21:29.143Z,12.20
2018-11-13T20:23:57.040Z,13.63
2018-11-13T20:26:24.879Z,17.50
2018-11-13T20:28:52.684Z,15.33
2018-11-13T20:31:20.647Z,15.07
2018-11-13T20:33:48.368Z,13.90
2018-11-13T20:36:16.169Z,17.83
2018-11-13T20:38:44.176Z,12.10
2018-11-13T20:41:11.825Z,16.73
2018-11-13T20:43:39.799Z,15.83
2018-11-13T20:46:07.594Z,15.10
2018-11-13T20:48:35.452Z,22.80
2018-11-13T20:51:03.243Z,16.60
2018-11-13T20:53:31.073Z,18.90
2018-11-13T20:55:58.924Z,20.20
2018-11-13T20:58:26.816Z,18.70
2018-11-13T21:00:54.640Z,18.20
2018-11-13T21:03:22.532Z,18.53
2018-11-13T21:05:50.356Z,17.13
2018-11-13T21:08:18.195Z,23.10
2018-11-13T21:10:46.103Z,21.10
2018-11-13T21:13:13.848Z,18.53
2018-11-13T21:15:41.684Z,15.80
2018-11-13T21:18:09.525Z,16.23
2018-11-13T21:20:37.397Z,18.40
2018-11-13T21:23:05.274Z,16.43
2018-11-13T21:25:33.124Z,13.57
2018-11-13T21:28:01.997Z,15.60
2018-11-13T21:30:29.921Z,17.80
2018-11-13T21:32:57.684Z,16.60
2018-11-13T21:35:25.516Z,16.30
2018-11-13T21:37:54.795Z,18.73
2018-11-13T21:40:23.762Z,17.40
2018-11-13T21:42:52.194Z,19.43
2018-11-13T21:45:21.039Z,14.30
2018-11-13T21:47:48.876Z,16.30
2018-11-13T21:50:18.021Z,14.40
2018-11-13T21:52:45.840Z,15.60
2018-11-13T21:55:14.932Z,15.90
2018-11-13T21:57:42.832Z,23.90
2018-11-13T22:00:11.500Z,20.00
2018-11-13T22:02:39.339Z,15.37
2018-11-13T22:05:07.813Z,15.47
2018-11-13T22:07:35.815Z,19.33
2018-11-13T22:10:04.054Z,26.70
2018-11-13T22:12:31.929Z,17.60
2018-11-13T22:14:59.721Z,18.23
2018-11-13T22:17:27.616Z,13.03
2018-11-13T22:19:55.364Z,16.10
2018-11-13T22:22:23.217Z,18.70
2018-11-13T22:24:51.067Z,16.13
2018-11-13T22:27:19.935Z,16.70
2018-11-13T22:29:47.823Z,16.87
2018-11-13T22:32:16.708Z,17.23
2018-11-13T22:34:44.576Z,20.67
2018-11-13T22:37:12.444Z,16.33
2018-11-13T22:39:40.288Z,12.47
2018-11-13T22:42:08.140Z,17.00
2018-11-13T22:44:35.955Z,19.67
2018-11-13T22:47:03.748Z,19.30
2018-11-13T22:49:31.620Z,16.93
2018-11-13T22:51:59.416Z,22.37
2018-11-13T22:54:28.303Z,18.33
2018-11-13T22:56:56.200Z,21.20
2018-11-13T22:59:24.048Z,20.00
2018-11-13T23:01:51.875Z,20.53
2018-11-13T23:04:19.688Z,15.87
2018-11-13T23:06:47.492Z,20.50
2018-11-13T23:09:16.335Z,22.37
2018-11-13T23:11:44.157Z,23.90
2018-11-13T23:14:11.971Z,19.07
2018-11-13T23:16:39.863Z,16.20
2018-11-13T23:19:07.701Z,17.03
2018-11-13T23:21:35.563Z,16.63
2018-11-13T23:24:03.534Z,17.57
2018-11-13T23:26:31.420Z,19.33
2018-11-13T23:28:59.286Z,21.07
2018-11-13T23:31:27.213Z,18.83
2018-11-13T23:33:56.034Z,23.93
2018-11-13T23:36:23.916Z,21.03
2018-11-13T23:38:51.748Z,20.37
2018-11-13T23:41:19.656Z,18.13
2018-11-13T23:43:48.527Z,21.67
2018-11-13T23:46:16.396Z,18.80
2018-11-13T23:48:44.245Z,21.27
2018-11-13T23:51:12.144Z,19.83
2018-11-13T23:53:41.035Z,17.50
2018-11-13T23:56:08.829Z,17.30
2018-11-13T23:58:36.672Z,22.87
